Time;durP1;ratioP1;P1;durP2;ratioP2;P2;SDS_P1;SDS_P2;PMS_P1;PMS_P2;Temp;Humidity;BMP_temperature;BMP_pressure;BME280_temperature;BME280_humidity;BME280_pressure;Samples;Min_cycle;Max_cycle;Signal;HPM_P1;HPM_P2
2022/03/22 00:02:19;;;;;;;;;;;-0.20;92.80;;;;;;5042846;28;19999;-70
2022/03/22 00:04:45;;;;;;;;;;;-0.20;92.80;;;;;;5033344;28;20012;-70
2022/03/22 00:07:10;;;;;;;;;;;-0.10;92.70;;;;;;5033242;28;19917;-70
2022/03/22 00:09:36;;;;;;;;;;;-0.10;92.70;;;;;;5033376;28;20399;-70
2022/03/22 00:12:02;;;;;;;;;;;-0.10;92.70;;;;;;5033240;28;19909;-70
2022/03/22 00:14:27;;;;;;;;;;;-0.10;92.90;;;;;;5033023;28;19913;-71
2022/03/22 00:16:53;;;;;;;;;;;-0.20;92.80;;;;;;5033261;28;19924;-70
2022/03/22 00:19:21;;;;;;;;;;;-0.30;93.00;;;;;;5033220;28;19916;-71
2022/03/22 00:21:47;;;;;;;;;;;-0.50;93.00;;;;;;5033001;28;20350;-70
2022/03/22 00:24:13;;;;;;;;;;;-0.60;93.60;;;;;;5033097;28;19917;-70
2022/03/22 00:26:39;;;;;;;;;;;-0.80;93.90;;;;;;5033374;28;19913;-70
2022/03/22 00:29:04;;;;;;;;;;;-0.90;94.30;;;;;;5039168;28;20327;-70
2022/03/22 00:31:30;;;;;;;;;;;-0.80;94.50;;;;;;5041552;28;19916;-70
2022/03/22 00:33:55;;;;;;;;;;;-0.70;94.40;;;;;;5032692;28;20010;-70
2022/03/22 00:36:22;;;;;;;;;;;-0.60;94.10;;;;;;5032751;28;20232;-70
2022/03/22 00:38:48;;;;;;;;;;;-0.60;94.10;;;;;;5032907;28;19909;-71
2022/03/22 00:41:13;;;;;;;;;;;-0.30;93.60;;;;;;5031604;28;19913;-71
2022/03/22 00:43:39;;;;;;;;;;;-0.50;93.90;;;;;;5032645;28;20325;-70
2022/03/22 00:46:05;;;;;;;;;;;-0.50;94.40;;;;;;5032849;28;19909;-70
2022/03/22 00:48:31;;;;;;;;;;;-0.40;93.90;;;;;;5032747;28;19913;-70
2022/03/22 00:50:57;;;;;;;;;;;-0.50;94.50;;;;;;5032492;28;20281;-70
2022/03/22 00:53:23;;;;;;;;;;;-0.70;94.60;;;;;;5032382;28;19920;-70
2022/03/22 00:55:49;;;;;;;;;;;-0.80;95.00;;;;;;5031453;28;19917;-70
2022/03/22 00:58:14;;;;;;;;;;;-0.90;95.60;;;;;;5032613;28;19909;-71
2022/03/22 01:00:40;;;;;;;;;;;-0.90;96.00;;;;;;5043570;28;20386;-70
2022/03/22 01:03:06;;;;;;;;;;;-0.90;95.70;;;;;;5041299;28;20274;-71
2022/03/22 01:05:32;;;;;;;;;;;-0.70;95.40;;;;;;5032299;28;20000;-70
2022/03/22 01:08:01;;;;;;;;;;;-0.70;95.30;;;;;;5032631;28;20003;-71
2022/03/22 01:10:28;;;;;;;;;;;-0.80;95.30;;;;;;5032374;28;20404;-71
2022/03/22 01:12:53;;;;;;;;;;;-1.00;95.80;;;;;;5032127;28;19920;-70
2022/03/22 01:15:20;;;;;;;;;;;-1.10;96.20;;;;;;5032106;28;20370;-71
2022/03/22 01:17:47;;;;;;;;;;;-1.10;96.20;;;;;;5032085;28;20356;-70
2022/03/22 01:20:12;;;;;;;;;;;-1.00;96.00;;;;;;5031737;28;20286;-70
2022/03/22 01:22:39;;;;;;;;;;;-0.90;95.80;;;;;;5032197;28;19913;-70
2022/03/22 01:25:06;;;;;;;;;;;-0.90;95.90;;;;;;5031955;28;19909;-70
2022/03/22 01:27:31;;;;;;;;;;;-0.80;96.00;;;;;;5032199;28;19910;-70
2022/03/22 01:29:57;;;;;;;;;;;-0.90;96.10;;;;;;5037500;28;19909;-70
2022/03/22 01:32:22;;;;;;;;;;;-1.00;96.10;;;;;;5038298;28;20011;-70
2022/03/22 01:34:48;;;;;;;;;;;-1.00;96.50;;;;;;5032083;28;19921;-70
2022/03/22 01:37:13;;;;;;;;;;;-0.90;96.10;;;;;;5032109;28;19963;-71
2022/03/22 01:39:39;;;;;;;;;;;-0.80;95.80;;;;;;5032029;28;20333;-70
2022/03/22 01:42:04;;;;;;;;;;;-0.90;95.90;;;;;;5032022;28;20325;-70
2022/03/22 01:44:30;;;;;;;;;;;-1.10;96.10;;;;;;5031768;28;19909;-70
2022/03/22 01:46:58;;;;;;;;;;;-1.30;96.60;;;;;;5032075;28;19936;-70
2022/03/22 01:49:24;;;;;;;;;;;-1.50;97.10;;;;;;5032752;28;19916;-70
2022/03/22 01:51:51;;;;;;;;;;;-1.50;98.40;;;;;;5031985;28;19910;-70
2022/03/22 01:54:17;;;;;;;;;;;-1.60;98.90;;;;;;5031691;28;20011;-70
2022/03/22 01:56:43;;;;;;;;;;;-1.60;98.90;;;;;;5032245;28;19952;-70
2022/03/22 01:59:08;;;;;;;;;;;-1.50;99.10;;;;;;5037959;28;19912;-70
2022/03/22 02:07:05;;;;;;;;;;;-1.30;98.20;;;;;;5051259;28;20007;-69
2022/03/22 02:09:30;;;;;;;;;;;-1.20;98.30;;;;;;5050767;28;19952;-69
2022/03/22 02:11:56;;;;;;;;;;;-1.20;97.80;;;;;;5050781;28;19909;-69
2022/03/22 02:14:21;;;;;;;;;;;-1.20;97.50;;;;;;5050437;28;19927;-69
2022/03/22 02:16:47;;;;;;;;;;;-1.20;97.70;;;;;;5050640;28;19921;-70
2022/03/22 02:19:14;;;;;;;;;;;-1.40;97.80;;;;;;5050689;28;19915;-70
2022/03/22 02:21:40;;;;;;;;;;;-1.40;98.10;;;;;;5050670;28;20284;-70
2022/03/22 02:24:05;;;;;;;;;;;-1.50;98.00;;;;;;5050557;28;19909;-69
2022/03/22 02:26:31;;;;;;;;;;;-1.70;98.50;;;;;;5038774;28;19913;-69
2022/03/22 02:28:56;;;;;;;;;;;-1.80;99.50;;;;;;5033026;28;20393;-69
2022/03/22 02:31:22;;;;;;;;;;;-1.60;99.30;;;;;;5038729;28;19988;-70
2022/03/22 02:33:48;;;;;;;;;;;-1.50;99.20;;;;;;5038774;28;19913;-69
2022/03/22 02:36:14;;;;;;;;;;;-1.50;99.00;;;;;;5035326;28;19916;-69
2022/03/22 02:38:40;;;;;;;;;;;-1.20;98.20;;;;;;5035117;28;19996;-69
2022/03/22 02:41:05;;;;;;;;;;;-1.00;97.70;;;;;;5035043;28;19915;-69
2022/03/22 02:43:31;;;;;;;;;;;-0.80;96.90;;;;;;5034669;28;19963;-69
2022/03/22 02:45:56;;;;;;;;;;;-0.80;96.70;;;;;;5035102;28;20381;-69
2022/03/22 02:48:22;;;;;;;;;;;-1.30;98.00;;;;;;5035016;28;20378;-70
2022/03/22 02:50:47;;;;;;;;;;;-1.60;99.60;;;;;;5034865;28;19910;-70
2022/03/22 02:53:13;;;;;;;;;;;-1.80;99.90;;;;;;5034490;28;19921;-70
2022/03/22 02:55:39;;;;;;;;;;;-1.90;99.90;;;;;;5034816;28;20000;-69
2022/03/22 02:58:04;;;;;;;;;;;-1.90;99.90;;;;;;5040292;28;19956;-70
2022/03/22 03:00:30;;;;;;;;;;;-2.00;99.90;;;;;;5041395;28;19924;-69
2022/03/22 03:02:55;;;;;;;;;;;-1.90;99.90;;;;;;5034542;28;19909;-69
2022/03/22 03:05:22;;;;;;;;;;;-2.10;99.90;;;;;;5034542;28;19955;-69
2022/03/22 03:07:51;;;;;;;;;;;-2.20;99.90;;;;;;5034565;28;19971;-69
2022/03/22 03:10:16;;;;;;;;;;;-2.20;99.90;;;;;;5034542;28;20366;-69
2022/03/22 03:12:42;;;;;;;;;;;-2.20;99.90;;;;;;5034296;28;19920;-70
2022/03/22 03:15:09;;;;;;;;;;;-2.20;99.90;;;;;;5034322;28;19909;-69
2022/03/22 03:17:34;;;;;;;;;;;-2.10;99.90;;;;;;5034301;28;19917;-69
2022/03/22 03:20:00;;;;;;;;;;;-2.10;99.90;;;;;;5034309;28;19909;-70
2022/03/22 03:22:25;;;;;;;;;;;-2.20;99.90;;;;;;5034300;28;19908;-69
2022/03/22 03:24:51;;;;;;;;;;;-2.20;99.90;;;;;;5034357;28;19971;-70
2022/03/22 03:27:17;;;;;;;;;;;-2.10;99.90;;;;;;5034166;28;19936;-70
2022/03/22 03:29:42;;;;;;;;;;;-2.10;99.90;;;;;;5045290;28;19916;-70
2022/03/22 03:32:08;;;;;;;;;;;-2.00;99.90;;;;;;5040333;28;20092;-70
2022/03/22 03:34:33;;;;;;;;;;;-2.20;99.90;;;;;;5033969;28;19913;-69
2022/03/22 03:36:59;;;;;;;;;;;-2.30;99.90;;;;;;5034220;28;19996;-70
2022/03/22 03:39:24;;;;;;;;;;;-2.40;99.90;;;;;;5034022;28;20000;-70
2022/03/22 03:41:53;;;;;;;;;;;-2.40;99.90;;;;;;5033302;28;19919;-70
2022/03/22 03:47:07;;;;;;;;;;;-2.40;99.90;;;;;;5034043;28;19987;-70
2022/03/22 03:49:37;;;;;;;;;;;-2.40;99.90;;;;;;5033881;28;20388;-70
2022/03/22 03:52:04;;;;;;;;;;;-2.40;99.90;;;;;;5033695;28;19956;-70
2022/03/22 03:54:29;;;;;;;;;;;-2.50;99.90;;;;;;5033406;28;20385;-70
2022/03/22 03:56:55;;;;;;;;;;;-2.50;99.90;;;;;;5033268;28;19909;-70
2022/03/22 03:59:20;;;;;;;;;;;-2.30;99.90;;;;;;5042214;28;19917;-70
2022/03/22 04:01:46;;;;;;;;;;;-2.30;99.90;;;;;;5034051;28;20082;-70
2022/03/22 04:04:12;;;;;;;;;;;-2.40;99.90;;;;;;5033321;28;19953;-70
2022/03/22 04:06:37;;;;;;;;;;;-2.30;99.90;;;;;;5033372;28;19955;-70
2022/03/22 04:09:03;;;;;;;;;;;-2.20;99.90;;;;;;5033415;28;20317;-70
2022/03/22 04:11:29;;;;;;;;;;;-2.20;99.90;;;;;;5033388;28;19924;-70
2022/03/22 04:13:54;;;;;;;;;;;-2.30;99.90;;;;;;5033101;28;19913;-70
2022/03/22 04:16:20;;;;;;;;;;;-2.30;99.90;;;;;;5033635;28;20293;-70
2022/03/22 04:18:45;;;;;;;;;;;-2.40;99.90;;;;;;5033255;28;19913;-70
2022/03/22 04:21:11;;;;;;;;;;;-2.50;99.90;;;;;;5033152;28;20370;-70
2022/03/22 04:23:37;;;;;;;;;;;-2.50;99.90;;;;;;5033016;28;20546;-70
2022/03/22 04:26:02;;;;;;;;;;;-2.50;99.90;;;;;;5033286;28;19913;-70
2022/03/22 04:33:57;;;;;;;;;;;-2.20;99.90;;;;;;5045648;28;20335;-69
2022/03/22 04:36:22;;;;;;;;;;;-2.30;99.90;;;;;;5052292;28;20011;-70
2022/03/22 04:38:48;;;;;;;;;;;-2.40;99.90;;;;;;5052103;28;19909;-69
2022/03/22 04:41:13;;;;;;;;;;;-2.50;99.90;;;;;;5051964;28;20259;-69
2022/03/22 04:43:39;;;;;;;;;;;-2.50;99.90;;;;;;5051716;28;19908;-70
2022/03/22 04:46:04;;;;;;;;;;;-2.60;99.90;;;;;;5051783;28;19913;-70
2022/03/22 04:48:30;;;;;;;;;;;-2.50;99.90;;;;;;5051814;28;20030;-69
2022/03/22 04:59:08;;;;;;;;;;;-1.60;99.90;;;;;;5035979;28;19916;-70
2022/03/22 05:01:33;;;;;;;;;;;-1.90;99.90;;;;;;5047584;28;19909;-71
2022/03/22 05:03:59;;;;;;;;;;;-2.10;99.90;;;;;;5035757;28;19960;-71
2022/03/22 05:06:28;;;;;;;;;;;-2.30;99.90;;;;;;5051356;28;19912;-70
2022/03/22 05:08:54;;;;;;;;;;;-2.50;99.90;;;;;;5051466;28;19924;-70
2022/03/22 05:11:22;;;;;;;;;;;-2.60;99.90;;;;;;5051252;28;19913;-70
2022/03/22 05:13:48;;;;;;;;;;;-2.60;99.90;;;;;;5050942;28;19913;-70
2022/03/22 05:16:17;;;;;;;;;;;-2.60;99.90;;;;;;5051243;28;19949;-70
2022/03/22 05:18:42;;;;;;;;;;;-2.70;99.90;;;;;;5051452;28;19913;-70
2022/03/22 05:21:08;;;;;;;;;;;-2.60;99.90;;;;;;5051246;28;19920;-70
2022/03/22 05:23:34;;;;;;;;;;;-2.60;99.90;;;;;;5050518;28;19992;-70
2022/03/22 05:25:59;;;;;;;;;;;-2.60;99.90;;;;;;5050761;28;20016;-70
2022/03/22 05:28:25;;;;;;;;;;;-2.50;99.90;;;;;;5043089;28;19909;-70
2022/03/22 05:30:50;;;;;;;;;;;-2.60;99.90;;;;;;5039960;28;19913;-70
2022/03/22 05:33:16;;;;;;;;;;;-2.60;99.90;;;;;;5031608;28;19913;-70
2022/03/22 05:35:41;;;;;;;;;;;-2.60;99.90;;;;;;5031984;28;19909;-71
2022/03/22 05:38:07;;;;;;;;;;;-2.60;99.90;;;;;;5032009;28;19923;-71
2022/03/22 05:40:32;;;;;;;;;;;-2.60;99.90;;;;;;5031917;28;20329;-71
2022/03/22 05:42:58;;;;;;;;;;;-2.60;99.90;;;;;;5031645;28;19917;-71
2022/03/22 05:45:23;;;;;;;;;;;-2.60;99.90;;;;;;5031597;28;19909;-71
2022/03/22 05:47:49;;;;;;;;;;;-2.60;99.90;;;;;;5031924;28;19932;-71
2022/03/22 05:50:15;;;;;;;;;;;-2.60;99.90;;;;;;5031801;28;19950;-71
2022/03/22 05:52:41;;;;;;;;;;;-2.60;99.90;;;;;;5031659;28;19924;-71
2022/03/22 05:55:07;;;;;;;;;;;-2.60;99.90;;;;;;5031342;28;19958;-71
2022/03/22 05:57:33;;;;;;;;;;;-2.50;99.90;;;;;;5040935;28;19909;-71
2022/03/22 05:59:58;;;;;;;;;;;-2.40;99.90;;;;;;5047383;28;20354;-71
2022/03/22 06:02:23;;;;;;;;;;;-2.30;99.90;;;;;;5031687;28;19949;-69
2022/03/22 06:04:49;;;;;;;;;;;-2.30;99.90;;;;;;5032408;28;20290;-70
2022/03/22 06:07:14;;;;;;;;;;;-2.00;99.90;;;;;;5035458;28;19909;-70
2022/03/22 06:09:41;;;;;;;;;;;-2.00;99.90;;;;;;5054363;28;19909;-70
2022/03/22 06:12:07;;;;;;;;;;;-1.90;99.90;;;;;;5054383;28;20007;-70
2022/03/22 06:14:32;;;;;;;;;;;-1.70;99.90;;;;;;5052870;28;20023;-70
2022/03/22 06:16:57;;;;;;;;;;;-1.60;99.90;;;;;;5054534;28;19917;-70
2022/03/22 06:19:23;;;;;;;;;;;-1.40;99.90;;;;;;5054534;28;20358;-70
2022/03/22 06:21:49;;;;;;;;;;;-1.40;99.90;;;;;;5042765;28;19913;-69
2022/03/22 06:24:14;;;;;;;;;;;-1.40;99.90;;;;;;5034904;28;20277;-70
2022/03/22 06:26:40;;;;;;;;;;;-1.20;99.90;;;;;;5035256;28;20336;-70
2022/03/22 06:29:06;;;;;;;;;;;-1.30;99.90;;;;;;5044620;28;20374;-70
2022/03/22 06:31:35;;;;;;;;;;;-1.20;99.90;;;;;;5047412;28;19940;-70
2022/03/22 06:34:01;;;;;;;;;;;-1.10;99.90;;;;;;5034880;28;20394;-71
2022/03/22 06:36:29;;;;;;;;;;;-1.10;99.90;;;;;;5035139;28;19968;-70
2022/03/22 06:38:55;;;;;;;;;;;-1.00;99.90;;;;;;5034753;28;19909;-71
2022/03/22 06:41:20;;;;;;;;;;;-1.10;99.90;;;;;;5034898;28;19962;-71
2022/03/22 06:43:46;;;;;;;;;;;-0.90;99.90;;;;;;5034800;28;19909;-71
2022/03/22 06:46:11;;;;;;;;;;;-0.90;99.90;;;;;;5034936;28;20281;-70
2022/03/22 06:48:37;;;;;;;;;;;-0.80;99.90;;;;;;5034878;28;20289;-70
2022/03/22 06:51:02;;;;;;;;;;;-0.60;99.90;;;;;;5034733;28;20390;-70
2022/03/22 06:53:28;;;;;;;;;;;-0.40;99.90;;;;;;5034171;28;20428;-70
2022/03/22 06:55:53;;;;;;;;;;;-0.10;99.90;;;;;;5034669;28;19927;-70
2022/03/22 06:58:21;;;;;;;;;;;-0.10;99.90;;;;;;5040356;28;19908;-70
2022/03/22 07:00:47;;;;;;;;;;;0.00;99.90;;;;;;5039504;28;19917;-70
2022/03/22 07:03:13;;;;;;;;;;;0.00;99.90;;;;;;5034226;28;19909;-70
2022/03/22 07:05:39;;;;;;;;;;;0.20;99.90;;;;;;5033427;28;19909;-70
2022/03/22 07:08:04;;;;;;;;;;;0.60;99.90;;;;;;5034440;28;19909;-70
2022/03/22 07:10:33;;;;;;;;;;;0.70;99.90;;;;;;5034359;28;19955;-70
2022/03/22 07:13:01;;;;;;;;;;;0.80;99.90;;;;;;5033752;28;19909;-70
2022/03/22 07:15:35;;;;;;;;;;;0.90;99.90;;;;;;5039555;28;19956;-71
2022/03/22 07:18:02;;;;;;;;;;;1.00;99.90;;;;;;5038086;28;19965;-70
2022/03/22 07:20:28;;;;;;;;;;;1.40;99.90;;;;;;5041231;28;20460;-70
2022/03/22 07:22:53;;;;;;;;;;;1.90;99.90;;;;;;5036713;28;19909;-70
2022/03/22 07:25:19;;;;;;;;;;;2.30;99.90;;;;;;5036499;28;19916;-70
2022/03/22 07:27:45;;;;;;;;;;;2.90;99.90;;;;;;5040267;28;20251;-70
2022/03/22 07:30:11;;;;;;;;;;;3.30;98.60;;;;;;5043508;28;19916;-70
2022/03/22 07:32:37;;;;;;;;;;;3.20;98.90;;;;;;5036308;28;19910;-70
2022/03/22 07:35:03;;;;;;;;;;;3.30;99.90;;;;;;5033282;28;19913;-70
2022/03/22 07:37:28;;;;;;;;;;;3.50;99.00;;;;;;5032627;28;19932;-70
2022/03/22 07:39:55;;;;;;;;;;;3.60;98.80;;;;;;5045944;28;19936;-70
2022/03/22 07:42:24;;;;;;;;;;;3.80;98.10;;;;;;5034742;28;19909;-70
2022/03/22 07:44:49;;;;;;;;;;;3.80;98.50;;;;;;5037609;28;19908;-70
2022/03/22 07:47:15;;;;;;;;;;;3.90;98.30;;;;;;5040891;28;20425;-70
2022/03/22 07:55:10;;;;;;;;;;;4.50;96.10;;;;;;5033290;28;20338;-70
2022/03/22 07:57:35;;;;;;;;;;;5.20;95.80;;;;;;5037946;28;19909;-71
2022/03/22 08:00:01;;;;;;;;;;;7.50;91.50;;;;;;5040650;28;20305;-71
2022/03/22 08:02:27;;;;;;;;;;;9.60;84.20;;;;;;5052325;28;20263;-71
2022/03/22 08:04:53;;;;;;;;;;;11.10;75.40;;;;;;5052202;28;19963;-71
2022/03/22 08:07:18;;;;;;;;;;;12.00;69.60;;;;;;5052329;28;19962;-71
2022/03/22 08:09:45;;;;;;;;;;;12.70;67.10;;;;;;5052288;28;19969;-69
2022/03/22 08:12:12;;;;;;;;;;;13.40;64.80;;;;;;5051659;28;19909;-70
2022/03/22 08:14:38;;;;;;;;;;;13.70;63.20;;;;;;5051609;28;20396;-69
2022/03/22 08:17:03;;;;;;;;;;;14.10;63.30;;;;;;5051714;28;19916;-69
2022/03/22 08:19:29;;;;;;;;;;;14.40;61.10;;;;;;5051631;28;20396;-69
2022/03/22 08:21:55;;;;;;;;;;;14.60;60.80;;;;;;5042728;28;20460;-70
2022/03/22 08:24:20;;;;;;;;;;;14.90;58.80;;;;;;5033297;28;19913;-70
2022/03/22 08:26:46;;;;;;;;;;;14.50;60.00;;;;;;5032634;28;19963;-70
2022/03/22 08:29:11;;;;;;;;;;;14.70;60.60;;;;;;5046238;28;20371;-71
2022/03/22 08:31:37;;;;;;;;;;;14.60;60.00;;;;;;5034565;28;19916;-70
2022/03/22 08:34:05;;;;;;;;;;;15.20;59.10;;;;;;5032132;28;20007;-70
2022/03/22 08:36:33;;;;;;;;;;;15.20;60.00;;;;;;5032517;28;19955;-70
2022/03/22 08:38:59;;;;;;;;;;;15.80;58.90;;;;;;5037933;28;19992;-70
2022/03/22 08:41:24;;;;;;;;;;;16.10;55.20;;;;;;5039194;28;20011;-70
2022/03/22 08:43:52;;;;;;;;;;;16.00;55.70;;;;;;5032826;28;19909;-70
2022/03/22 08:46:20;;;;;;;;;;;16.40;56.30;;;;;;5039169;28;19943;-69
2022/03/22 08:48:46;;;;;;;;;;;17.40;55.20;;;;;;5038992;28;20324;-71
2022/03/22 08:51:13;;;;;;;;;;;17.70;52.50;;;;;;5042759;28;20012;-70
2022/03/22 08:53:38;;;;;;;;;;;17.90;52.60;;;;;;5034475;28;19913;-70
2022/03/22 08:56:04;;;;;;;;;;;18.40;51.00;;;;;;5043142;28;20397;-71
2022/03/22 08:58:30;;;;;;;;;;;18.10;53.40;;;;;;5033143;28;19996;-70
2022/03/22 09:00:55;;;;;;;;;;;18.30;49.90;;;;;;5050934;28;19912;-70
2022/03/22 09:03:22;;;;;;;;;;;18.90;51.00;;;;;;5033624;28;20457;-70
2022/03/22 09:08:32;;;;;;;;;;;18.40;49.50;;;;;;5032184;28;20138;-71
2022/03/22 09:10:57;;;;;;;;;;;19.40;51.30;;;;;;5032050;28;19913;-71
2022/03/22 09:13:23;;;;;;;;;;;19.20;47.80;;;;;;5031485;28;20462;-70
2022/03/22 09:15:51;;;;;;;;;;;19.50;47.50;;;;;;5031760;28;19989;-71
2022/03/22 09:18:17;;;;;;;;;;;20.20;48.80;;;;;;5031560;28;19913;-70
2022/03/22 09:20:44;;;;;;;;;;;20.10;45.80;;;;;;5031396;28;19932;-70
2022/03/22 09:23:11;;;;;;;;;;;20.50;45.70;;;;;;5031127;28;19978;-70
2022/03/22 09:25:37;;;;;;;;;;;20.80;45.10;;;;;;5032839;28;20263;-71
2022/03/22 09:28:05;;;;;;;;;;;20.30;43.00;;;;;;5049132;28;19979;-70
2022/03/22 09:30:31;;;;;;;;;;;20.30;44.90;;;;;;5034106;28;19921;-70
2022/03/22 09:32:57;;;;;;;;;;;20.30;45.60;;;;;;5031536;28;20393;-70
2022/03/22 09:35:23;;;;;;;;;;;20.90;43.50;;;;;;5031281;28;19914;-71
2022/03/22 09:37:49;;;;;;;;;;;21.00;43.50;;;;;;5032479;28;19955;-71
2022/03/22 09:40:16;;;;;;;;;;;21.70;40.40;;;;;;5041308;28;19989;-72
2022/03/22 09:42:42;;;;;;;;;;;22.30;39.30;;;;;;5042223;28;19909;-72
2022/03/22 09:45:13;;;;;;;;;;;22.00;41.80;;;;;;5049572;28;19963;-70
2022/03/22 09:47:41;;;;;;;;;;;22.50;39.20;;;;;;5041697;28;19917;-70
2022/03/22 09:50:08;;;;;;;;;;;22.20;39.80;;;;;;5052004;28;19974;-72
2022/03/22 09:52:37;;;;;;;;;;;21.70;40.00;;;;;;5056661;28;20452;-71
2022/03/22 09:55:03;;;;;;;;;;;21.90;39.30;;;;;;5056750;28;19913;-71
2022/03/22 09:57:29;;;;;;;;;;;20.70;39.90;;;;;;5053401;28;19971;-71
2022/03/22 09:59:54;;;;;;;;;;;22.30;39.20;;;;;;5059943;28;19940;-71
2022/03/22 10:02:34;;;;;;;;;;;22.00;39.10;;;;;;5037818;28;19909;-71
2022/03/22 10:04:59;;;;;;;;;;;23.30;38.50;;;;;;5037490;28;19909;-71
2022/03/22 10:07:27;;;;;;;;;;;24.20;36.40;;;;;;5037890;28;19967;-71
2022/03/22 10:09:52;;;;;;;;;;;24.00;36.00;;;;;;5037410;28;19909;-71
2022/03/22 10:12:28;;;;;;;;;;;24.20;36.50;;;;;;5037725;28;19916;-71
2022/03/22 10:14:53;;;;;;;;;;;25.10;35.90;;;;;;5037624;28;19913;-71
2022/03/22 10:17:19;;;;;;;;;;;23.60;38.00;;;;;;5037585;28;20365;-71
2022/03/22 10:19:46;;;;;;;;;;;24.20;38.60;;;;;;5037359;28;19909;-71
2022/03/22 10:22:12;;;;;;;;;;;22.70;36.50;;;;;;5037715;28;19909;-71
2022/03/22 10:24:41;;;;;;;;;;;23.50;38.40;;;;;;5037549;28;20454;-71
2022/03/22 10:27:17;;;;;;;;;;;24.40;38.20;;;;;;5037639;28;19909;-71
2022/03/22 10:29:45;;;;;;;;;;;24.00;37.30;;;;;;5051143;28;20307;-71
2022/03/22 10:32:11;;;;;;;;;;;23.80;37.90;;;;;;5045895;28;20263;-71
2022/03/22 10:34:36;;;;;;;;;;;25.30;37.00;;;;;;5037174;28;19916;-71
2022/03/22 10:37:02;;;;;;;;;;;25.10;33.60;;;;;;5037476;28;19909;-71
2022/03/22 10:39:28;;;;;;;;;;;24.20;34.80;;;;;;5041485;28;19913;-71
2022/03/22 10:42:02;;;;;;;;;;;26.00;35.00;;;;;;5042943;28;19909;-71
2022/03/22 10:44:28;;;;;;;;;;;25.60;33.60;;;;;;5040791;28;20285;-71
2022/03/22 10:46:54;;;;;;;;;;;25.60;33.00;;;;;;5043085;28;19919;-71
2022/03/22 10:49:19;;;;;;;;;;;26.20;32.80;;;;;;5037162;28;19971;-71
2022/03/22 10:51:46;;;;;;;;;;;27.10;34.50;;;;;;5034129;28;20425;-71
2022/03/22 10:54:15;;;;;;;;;;;26.40;33.30;;;;;;5033986;28;19913;-71
2022/03/22 10:56:44;;;;;;;;;;;26.50;31.00;;;;;;5034141;28;19909;-72
2022/03/22 10:59:11;;;;;;;;;;;26.40;33.60;;;;;;5045027;28;20298;-72
2022/03/22 11:01:39;;;;;;;;;;;26.30;32.10;;;;;;5042330;28;19909;-71
2022/03/22 11:04:04;;;;;;;;;;;26.40;32.90;;;;;;5045877;28;19916;-72
2022/03/22 11:06:30;;;;;;;;;;;27.20;30.00;;;;;;5034024;28;19909;-72
2022/03/22 11:08:57;;;;;;;;;;;25.30;31.10;;;;;;5034048;28;19916;-71
2022/03/22 11:11:22;;;;;;;;;;;24.60;30.90;;;;;;5037143;28;19960;-71
2022/03/22 11:13:48;;;;;;;;;;;25.90;31.00;;;;;;5036943;28;19963;-72
2022/03/22 11:16:14;;;;;;;;;;;25.80;33.70;;;;;;5033826;28;19959;-72
2022/03/22 11:18:39;;;;;;;;;;;25.80;32.60;;;;;;5036430;28;19909;-71
2022/03/22 11:21:05;;;;;;;;;;;27.00;31.40;;;;;;5055086;28;19909;-71
2022/03/22 11:23:31;;;;;;;;;;;26.70;33.30;;;;;;5033632;28;20564;-71
2022/03/22 11:26:10;;;;;;;;;;;26.60;30.30;;;;;;5033804;28;19909;-71
2022/03/22 11:28:38;;;;;;;;;;;27.70;30.00;;;;;;5042511;28;19913;-74
2022/03/22 11:31:05;;;;;;;;;;;26.80;29.60;;;;;;5042786;28;19909;-72
2022/03/22 11:36:16;;;;;;;;;;;28.10;31.20;;;;;;5033719;28;20286;-71
2022/03/22 11:38:46;;;;;;;;;;;27.50;32.10;;;;;;5039265;28;19971;-72
2022/03/22 11:44:14;;;;;;;;;;;26.60;31.60;;;;;;5044636;28;19963;-73
2022/03/22 11:46:40;;;;;;;;;;;26.80;30.50;;;;;;5049910;28;19913;-71
2022/03/22 11:49:14;;;;;;;;;;;26.90;30.20;;;;;;5035863;28;19941;-71
2022/03/22 11:51:47;;;;;;;;;;;28.00;31.10;;;;;;5032900;28;19929;-74
2022/03/22 11:54:13;;;;;;;;;;;27.80;30.40;;;;;;5032907;28;19967;-72
2022/03/22 11:57:05;;;;;;;;;;;27.40;29.90;;;;;;5033073;28;19910;-72
2022/03/22 11:59:41;;;;;;;;;;;26.00;29.80;;;;;;5037571;28;19916;-73
2022/03/22 12:02:11;;;;;;;;;;;26.00;32.70;;;;;;5043909;28;19920;-72
2022/03/22 12:05:03;;;;;;;;;;;26.40;31.90;;;;;;5032928;28;20018;-71
2022/03/22 12:07:34;;;;;;;;;;;21.10;32.80;;;;;;5046279;28;20267;-71
2022/03/22 12:10:02;;;;;;;;;;;18.70;40.80;;;;;;5051914;28;19909;-71
2022/03/22 12:12:29;;;;;;;;;;;17.20;42.50;;;;;;5038228;28;20356;-72
2022/03/22 12:14:57;;;;;;;;;;;17.50;44.20;;;;;;5032758;28;19913;-72
2022/03/22 12:17:23;;;;;;;;;;;17.30;41.80;;;;;;5032949;28;19917;-72
2022/03/22 12:19:48;;;;;;;;;;;16.40;41.90;;;;;;5032949;28;19916;-71
2022/03/22 12:22:14;;;;;;;;;;;16.40;42.80;;;;;;5032554;28;20324;-71
2022/03/22 12:24:39;;;;;;;;;;;15.80;42.50;;;;;;5051477;28;19959;-71
2022/03/22 12:27:09;;;;;;;;;;;15.60;42.50;;;;;;5050425;28;19908;-74
2022/03/22 12:29:41;;;;;;;;;;;15.50;39.80;;;;;;5050041;28;20350;-71
2022/03/22 12:32:21;;;;;;;;;;;15.60;44.20;;;;;;5032598;28;19963;-73
2022/03/22 12:34:47;;;;;;;;;;;15.90;43.60;;;;;;5032104;28;20388;-71
2022/03/22 12:37:13;;;;;;;;;;;15.90;45.10;;;;;;5032978;28;19932;-71
2022/03/22 12:39:41;;;;;;;;;;;15.70;43.70;;;;;;5037868;28;19916;-71
2022/03/22 12:42:07;;;;;;;;;;;15.70;45.00;;;;;;5044266;28;19913;-71
2022/03/22 12:44:33;;;;;;;;;;;15.80;45.80;;;;;;5035560;28;19956;-71
2022/03/22 12:47:00;;;;;;;;;;;15.80;43.40;;;;;;5049881;28;19909;-71
2022/03/22 12:49:27;;;;;;;;;;;15.70;45.10;;;;;;5033095;28;20008;-72
2022/03/22 12:51:52;;;;;;;;;;;15.60;45.00;;;;;;5032649;28;19913;-71
2022/03/22 12:54:18;;;;;;;;;;;15.40;43.30;;;;;;5032409;28;19936;-72
2022/03/22 12:56:44;;;;;;;;;;;15.40;43.80;;;;;;5032924;28;19995;-71
2022/03/22 12:59:17;;;;;;;;;;;15.40;42.40;;;;;;5038172;28;20301;-72
2022/03/22 13:01:43;;;;;;;;;;;15.50;42.10;;;;;;5038690;28;19992;-71
2022/03/22 13:04:08;;;;;;;;;;;15.20;39.80;;;;;;5042436;28;19909;-71
2022/03/22 13:06:36;;;;;;;;;;;15.20;43.40;;;;;;5032656;28;19932;-71
2022/03/22 13:11:46;;;;;;;;;;;15.70;42.00;;;;;;5031973;28;19916;-71
2022/03/22 13:16:57;;;;;;;;;;;15.60;42.70;;;;;;5031669;28;20016;-72
2022/03/22 13:19:23;;;;;;;;;;;15.70;43.20;;;;;;5031582;28;19917;-71
2022/03/22 13:21:49;;;;;;;;;;;15.50;42.90;;;;;;5031250;28;19909;-71
2022/03/22 13:24:21;;;;;;;;;;;15.40;40.40;;;;;;5031568;28;19909;-72
2022/03/22 13:27:02;;;;;;;;;;;15.30;41.70;;;;;;5031672;28;19913;-72
2022/03/22 13:29:34;;;;;;;;;;;15.50;43.00;;;;;;5045098;28;19913;-70
2022/03/22 13:32:01;;;;;;;;;;;15.50;42.20;;;;;;5048357;28;19913;-70
2022/03/22 13:34:27;;;;;;;;;;;15.30;40.00;;;;;;5033244;28;20271;-73
2022/03/22 13:37:25;;;;;;;;;;;15.10;41.00;;;;;;5031515;28;19979;-71
2022/03/22 13:40:02;;;;;;;;;;;15.40;42.10;;;;;;5062310;28;20269;-71
2022/03/22 13:42:27;;;;;;;;;;;15.50;41.80;;;;;;5034421;28;20401;-71
2022/03/22 13:45:00;;;;;;;;;;;15.30;42.70;;;;;;5045087;28;20003;-72
2022/03/22 13:47:36;;;;;;;;;;;15.20;41.20;;;;;;5035323;28;19909;-70
2022/03/22 13:50:07;;;;;;;;;;;15.30;40.80;;;;;;5031262;28;19971;-70
2022/03/22 13:52:36;;;;;;;;;;;15.40;42.60;;;;;;5031202;28;19944;-71
2022/03/22 13:55:10;;;;;;;;;;;15.50;40.70;;;;;;5029058;28;19996;-71
2022/03/22 13:57:36;;;;;;;;;;;15.60;42.50;;;;;;5029066;28;19913;-70
2022/03/22 14:00:03;;;;;;;;;;;15.40;42.20;;;;;;5036012;28;20297;-71
2022/03/22 14:02:30;;;;;;;;;;;15.30;40.50;;;;;;5036019;28;19913;-71
2022/03/22 14:04:55;;;;;;;;;;;15.30;40.40;;;;;;5040323;28;19912;-73
2022/03/22 14:07:21;;;;;;;;;;;15.30;43.10;;;;;;5031707;28;19909;-71
2022/03/22 14:09:47;;;;;;;;;;;15.40;41.50;;;;;;5031794;28;19963;-70
2022/03/22 14:12:12;;;;;;;;;;;15.50;42.30;;;;;;5031679;28;20371;-70
2022/03/22 14:14:38;;;;;;;;;;;15.60;42.00;;;;;;5031420;28;19913;-70
2022/03/22 14:17:03;;;;;;;;;;;15.60;41.40;;;;;;5031435;28;20281;-70
2022/03/22 14:19:29;;;;;;;;;;;15.40;40.90;;;;;;5031715;28;20008;-70
2022/03/22 14:21:55;;;;;;;;;;;15.30;41.80;;;;;;5031643;28;19999;-70
2022/03/22 14:24:20;;;;;;;;;;;15.30;41.30;;;;;;5031426;28;19909;-69
2022/03/22 14:26:46;;;;;;;;;;;15.40;42.40;;;;;;5033854;28;19916;-71
2022/03/22 14:29:11;;;;;;;;;;;15.40;41.10;;;;;;5035137;28;20358;-70
2022/03/22 14:31:39;;;;;;;;;;;15.30;40.10;;;;;;5038944;28;19913;-71
2022/03/22 14:34:05;;;;;;;;;;;15.30;40.00;;;;;;5047574;28;19913;-71
2022/03/22 14:36:30;;;;;;;;;;;15.60;41.70;;;;;;5034952;28;19910;-73
2022/03/22 14:38:55;;;;;;;;;;;15.50;41.90;;;;;;5044658;28;19999;-71
2022/03/22 14:41:27;;;;;;;;;;;15.60;42.30;;;;;;5038118;28;20373;-71
2022/03/22 14:43:53;;;;;;;;;;;15.60;43.00;;;;;;5043926;28;19916;-71
2022/03/22 14:46:19;;;;;;;;;;;15.60;40.90;;;;;;5042392;28;19909;-71
2022/03/22 14:48:49;;;;;;;;;;;15.60;40.70;;;;;;5040653;28;20444;-74
2022/03/22 14:54:02;;;;;;;;;;;15.40;42.10;;;;;;5047480;28;20286;-72
2022/03/22 14:54:03;;;;;;;;;;;15.30;41.50;;;;;;5052943;28;19917;-71
2022/03/22 14:59:15;;;;;;;;;;;15.40;41.30;;;;;;5051770;28;19915;-71
2022/03/22 15:01:41;;;;;;;;;;;15.30;44.10;;;;;;5046653;28;19909;-71